Hudson, SD (57034)

6:15 AM CDT on July 21, 2019 (GMT -0500)
Campingfarmer | | Change Station
Active Advisory: Flood Warning

Elev 1253 ft 43.19 °N, 96.39 °W | Updated 1 second ago

Partly Cloudy
Partly Cloudy
66.2 °F
Feels Like 66.2 °F
N
0
Wind Variable Wind from WNW
Gusts 0.0 mph

Today
High -- | Low -- °F
--% Chance of Precip.
Yesterday
High -- | Low -- °F
Precip. -- in
Pressure 30.02 in
Visibility 10.0 miles
Clouds Clear
Dew Point 53 °F
Humidity 62%
Rainfall 0.00 in
Snow Depth Not available.
6:05 AM 8:58 PM
Waning Gibbous, 82% visible
METAR KLRJ 211055Z AUTO 04004KT 10SM CLR 17/17 A3002 RMK AO2
Pressure 30.02 in
Visibility 10.0 miles
Clouds Clear
Dew Point 53 °F
Humidity 62%
Rainfall 0.00 in
Snow Depth Not available.
6:05 AM 8:58 PM
Waning Gibbous, 82% visible
METAR KLRJ 211055Z AUTO 04004KT 10SM CLR 17/17 A3002 RMK AO2

Get Your Daily Forecast Email!

Thanks for signing up!

Be on the lookout for a verification email in your inbox.

You'll start receiving severe weather alerts in your inbox..

×

10-Day Weather Forecast

Almanac

Astronomy

Jul. 21, 2019 Rise Set
Actual Time
Civil Twilight
Nautical Twilight
Astronomical Twilight
Moon
Length of Visible Light
Length of Day
Tomorrow will be .
, % of the Moon is Illuminated

Today's Extremes

State Highs State Lows

Community

WunderPhotos

Category 6

Welcome to Category 6. This is the collective home for Weather Underground's featured writeups by Dr. Jeff Masters (right), Bob Henson (left), Chris Burt, and other regular contributors.

Nearby

Air Quality

  Air Quality AQ Index Pollutant
Not available.

Snow Depth

Station Depth Elevation

Earthquake Activity

City Distance Mag. Time & Date
Minimum magnitude displayed is 2.5.

Coastal Water Temperatures

Place Temperature

Stations

Nearby Weather Stations

Station Location Temp. Windchill Dew Point Humidity Wind Precip. Elev Updated Type
                   

Watches & Warnings

Flood Warning
Issued: 10:50 AM CDT Jul. 20, 2019 – National Weather Service

The Flood Warning continues for
the Big Sioux River near Canton.
* Until further notice.
* At 10am Saturday the stage was 1235.15 feet.
* Flood stage is 1235.00 feet.
* At stages near 1235 feet... flooding begins to affect crop and
pasture land.


Lat... Lon 4339 9658 4338 9648 4327 9648 4327 9652
          4324 9652 4320 9652 4321 9661
          4332 9660 4331 9656




1050 am CDT Sat Jul 20 2019

The Flood Warning continues for
the Big Sioux River at Sioux Falls north cliff.
* From this evening to late Monday night.
* At 10am Saturday the stage was 15.66 feet.
* Minor flooding is forecast.
* Flood stage is 16.00 feet.
* Forecast... rise above flood stage by Saturday July 20 and crest
near 16.5 feet by Sunday July 21.The river will fall below flood
stage by Monday July 22.
* At stages near 16.0 feet... rural flooding downstream of Sioux Falls
begins, and the Glenwood stable begins to flood.


Lat... Lon 4356 9672 4358 9672 4358 9668 4359 9668
          4362 9664 4359 9665 4356 9667